Dale, South Carolina
Current Conditions -  °F | °C
As of 11:56 PM on Monday 20 Oct 2014 (Local Time) from KNBC Reporting Station
Broken Clouds Broken Clouds  
Wind Chill: 68°   Ceiling: 4100
Heat Index: 68°   Visibility: 10mi
Dew Point: 65°   Wind: 0mph
Humidity: 90%   Direction: NA
Pressure: 29.99"   Gusts: NA
Location:  32.56°N, 80.69°W
Report Text: KNBC 210356Z 00000KT 10SM BKN041 BKN048 BKN080 20/18 A2999 RMK AO2 SLP157 T02000183 $
Loading
Personal Weather Stations






























Interactive Weather Map
Tropical Storm Tracking
New forecast layout! Learn more

10-Day Weather Forecast

Advertisements
Track Severe Weather on mobile